WetterOnline ( https://www.wetteronline.de )

Wetter aktuell Grosser Arber

Aktuelles Wetter: Großer Arber (1446m)

6-stündlich | Neueste Meldungen
Ortszeit Temperatur Wetter
Mo, 28.11. 19:00 0.5° C bewölkt
Mo, 28.11. 13:00 2.1° C bedeckt
Mo, 28.11. 7:00 2.5° C bedeckt
Mo, 28.11. 1:00 0.0° C bedeckt
So, 27.11. 19:00 -2.1° C wolkig
So, 27.11. 13:00 -0.3° C wolkenlos
So, 27.11. 7:00 -3.4° C wolkig
So, 27.11. 1:00 -3.0° C wolkig
Ortszeit Temperatur Wetter
Mo, 28.11. 22:30 0.5° C bewölkt
Mo, 28.11. 22:20 0.5° C bewölkt
Mo, 28.11. 22:10 0.7° C bewölkt
Mo, 28.11. 22:00 0.9° C bewölkt
Mo, 28.11. 21:50 0.9° C bewölkt
Mo, 28.11. 21:40 1.1° C bedeckt
Mo, 28.11. 21:30 0.9° C bewölkt
Mo, 28.11. 21:00 0.7° C bedeckt
Mo, 28.11. 20:30 0.9° C bedeckt
Mo, 28.11. 20:00 1.0° C wolkig
Mo, 28.11. 19:30 0.4° C bedeckt
Ortszeit Relative Feuchte Sichtweite
Mo, 28.11. 19:00 81% >70 km
Mo, 28.11. 13:00 41% >70 km
Mo, 28.11. 7:00 16% >70 km
Mo, 28.11. 1:00 42% >70 km
So, 27.11. 19:00 65% >70 km
So, 27.11. 13:00 81% >70 km
So, 27.11. 7:00 83% >70 km
So, 27.11. 1:00 97% 9 km
Ortszeit Relative Feuchte Sichtweite
Mo, 28.11. 22:30 92% >70 km
Mo, 28.11. 22:20 92% -
Mo, 28.11. 22:10 88% -
Mo, 28.11. 22:00 83% >70 km
Mo, 28.11. 21:50 83% -
Mo, 28.11. 21:40 77% -
Mo, 28.11. 21:30 83% >70 km
Mo, 28.11. 21:00 81% >70 km
Mo, 28.11. 20:30 76% >70 km
Mo, 28.11. 20:00 76% >70 km
Mo, 28.11. 19:30 83% >70 km
Ortszeit Niederschlagsmenge Niederschlagsart
Mo, 28.11. 19:00 0.1 l/m2 in 12 Std. Schnee, Regen
Mo, 28.11. 13:00 0.0 l/m2 in 6 Std. -
Mo, 28.11. 7:00 0.0 l/m2 in 12 Std. -
Mo, 28.11. 1:00 0.0 l/m2 in 6 Std. -
So, 27.11. 19:00 0.0 l/m2 in 12 Std. -
So, 27.11. 13:00 0.0 l/m2 in 6 Std. -
So, 27.11. 7:00 0.0 l/m2 in 12 Std. -
So, 27.11. 1:00 0.0 l/m2 in 6 Std. -
Ortszeit Niederschlagsmenge Niederschlagsart
Mo, 28.11. 22:30 0.0 l/m2 in 1 Std. -
Mo, 28.11. 22:20 keine Meldung -
Mo, 28.11. 22:10 keine Meldung -
Mo, 28.11. 22:00 0.0 l/m2 in 1 Std. -
Mo, 28.11. 21:50 keine Meldung -
Mo, 28.11. 21:40 keine Meldung -
Mo, 28.11. 21:30 0.0 l/m2 in 1 Std. -
Mo, 28.11. 21:00 0.0 l/m2 in 1 Std. -
Mo, 28.11. 20:30 0.0 l/m2 in 1 Std. -
Mo, 28.11. 20:00 0.0 l/m2 in 1 Std. -
Mo, 28.11. 19:30 0.0 l/m2 in 1 Std. -
Ortszeit Stärke Spitze Richtung
km/h Bft. km/h Grad Sektor
Mo, 28.11. 19:00 18 3 32 150° SO
Mo, 28.11. 13:00 7 2 18 260° W
Mo, 28.11. 7:00 7 2 29 180° S
Mo, 28.11. 1:00 25 4 43 150° SO
So, 27.11. 19:00 29 5 36 150° SO
So, 27.11. 13:00 15 3 26 180° S
So, 27.11. 7:00 6 1 24 230° SW
So, 27.11. 1:00 18 3 25 210° SW
Ortszeit Stärke Spitze Richtung
km/h Bft. km/h Grad Sektor
Mo, 28.11. 22:30 19 3 24 180° S
Mo, 28.11. 22:20 19 3 - 180° S
Mo, 28.11. 22:10 18 3 - 190° S
Mo, 28.11. 22:00 22 4 25 190° S
Mo, 28.11. 21:50 22 4 - 190° S
Mo, 28.11. 21:40 22 4 - 190° S
Mo, 28.11. 21:30 22 4 25 180° S
Mo, 28.11. 21:00 19 3 20 180° S
Mo, 28.11. 20:30 18 3 22 180° S
Mo, 28.11. 20:00 18 3 22 180° S
Mo, 28.11. 19:30 18 3 22 150° SO
Ortszeit Untergrenze Bedeckung Gattung
total tief tief mittel hoch
Mo, 28.11. 19:00 1140 m 7/8 7/8 - - -
Mo, 28.11. 13:00 1110 m 8/8 8/8 - - -
Mo, 28.11. 7:00 2100 m 8/8 8/8 - - -
Mo, 28.11. 1:00 3900 m 8/8 8/8 - - -
So, 27.11. 19:00 7800 m 8/8 0/8 - - -
So, 27.11. 13:00 - 0/8 0/8 - - -
So, 27.11. 7:00 8400 m 7/8 0/8 - - -
So, 27.11. 1:00 30 m 5/8 5/8 - - -
Ortszeit Bedeckungsgrad in Achtel und Wolkenuntergrenze
Mo, 28.11. 22:30 1(1200m) 7(1800m)
Mo, 28.11. 22:20 1(1200m) 7(1800m)
Mo, 28.11. 22:10 7
Mo, 28.11. 22:00 7(1500m)
Mo, 28.11. 21:50 7(1500m)
Mo, 28.11. 21:40 8
Mo, 28.11. 21:30 2(1110m) 7(2100m)
Mo, 28.11. 21:00 1(1290m) 7(1800m) 8(2400m)
Mo, 28.11. 20:30 2(1500m) 8(2400m) 8(3000m)
Mo, 28.11. 20:00 1(1800m) 8(3000m) 8(3600m)
Mo, 28.11. 19:30 2(2100m) 8(2700m) 8(3600m)
Ortszeit Stationsdruck (hPa) Tendenz (hPa in 3 Std.)
Mo, 28.11. 19:00 851 0,0
Mo, 28.11. 13:00 851 - 0,4
Mo, 28.11. 7:00 852 - 0,7
Mo, 28.11. 1:00 854 - 1,8
So, 27.11. 19:00 857 - 1,5
So, 27.11. 13:00 860 - 1,3
So, 27.11. 7:00 862 - 0,3
So, 27.11. 1:00 863 - 0,6
Ortszeit Stationsdruck (hPa) Tendenz (hPa in 3 Std.)
Mo, 28.11. 22:30 851 + 0,3
Mo, 28.11. 22:20 851 keine Meldung
Mo, 28.11. 22:10 851 keine Meldung
Mo, 28.11. 22:00 851 + 0,2
Mo, 28.11. 21:50 851 keine Meldung
Mo, 28.11. 21:40 851 keine Meldung
Mo, 28.11. 21:30 851 + 0,1
Mo, 28.11. 21:00 851 + 0,1
Mo, 28.11. 20:30 851 0,0
Mo, 28.11. 20:00 851 - 0,1
Mo, 28.11. 19:30 851 - 0,2
Ortszeit Schneehöhe (cm)
Mo, 28.11. 19:00 30
Mo, 28.11. 13:00 30
Mo, 28.11. 7:00 30
Mo, 28.11. 1:00 34
So, 27.11. 19:00 36
So, 27.11. 13:00 36
So, 27.11. 7:00 36
So, 27.11. 1:00 36
Ortszeit Schneehöhe (cm)
Mo, 28.11. 22:30 30
Mo, 28.11. 22:20 30
Mo, 28.11. 22:10 30
Mo, 28.11. 22:00 30
Mo, 28.11. 21:50 30
Mo, 28.11. 21:40 30
Mo, 28.11. 21:30 30
Mo, 28.11. 21:00 30
Mo, 28.11. 20:30 30
Mo, 28.11. 20:00 30
Mo, 28.11. 19:30 30
Link zu dieser Seite / Seite empfehlen

Das Wetter in ...